La Rambla, Spain
Current Conditions -  °F | °C
As of 8:00 PM on Saturday 22 Nov 2014 (Local Time) from LEBA Reporting Station
Overcast Overcast  
Wind Chill: 66°   Ceiling: 4500
Heat Index: 66°   Visibility: 6mi
Dew Point: 55°   Wind: 6mph
Humidity: 68%   Direction: 70°ENE
Pressure: 29.74"   Gusts: NA
Location:  37.61°N, 4.74°W
Report Text: LEBA 221900Z 07005KT 040V100 9999 OVC045 19/13 Q1007
Loading
Personal Weather Stations






























Interactive Weather Map New forecast layout! Learn more

10-Day Weather Forecast

Advertisements
Track Severe Weather on mobile